createdAt,value
2022-10-11T00:01:16.989Z,2.23
2022-10-11T00:03:43.400Z,2.03
2022-10-11T00:06:09.836Z,2.00
2022-10-11T00:08:36.197Z,2.10
2022-10-11T00:11:06.221Z,2.00
2022-10-11T00:13:33.239Z,1.70
2022-10-11T00:16:00.045Z,1.73
2022-10-11T00:18:26.690Z,1.93
2022-10-11T00:21:01.617Z,1.83
2022-10-11T00:23:28.080Z,2.23
2022-10-11T00:26:02.861Z,2.13
2022-10-11T00:28:29.480Z,2.20
2022-10-11T00:30:55.983Z,1.93
2022-10-11T00:33:22.518Z,2.13
2022-10-11T00:35:48.981Z,2.00
2022-10-11T00:38:15.725Z,2.20
2022-10-11T00:40:42.134Z,2.13
2022-10-11T00:43:24.043Z,2.47
2022-10-11T00:45:56.493Z,2.00
2022-10-11T00:48:36.442Z,2.57
2022-10-11T00:51:06.673Z,2.50
2022-10-11T00:53:33.991Z,2.67
2022-10-11T00:56:07.129Z,1.90
2022-10-11T00:58:36.231Z,2.73
2022-10-11T01:01:03.254Z,1.93
2022-10-11T01:03:34.944Z,2.40
2022-10-11T01:06:03.523Z,2.73
2022-10-11T01:08:31.317Z,2.43
2022-10-11T01:10:58.434Z,2.57
2022-10-11T01:13:46.288Z,3.00
2022-10-11T01:16:20.857Z,3.47
2022-10-11T01:19:05.316Z,2.70
2022-10-11T01:21:52.020Z,3.10
2022-10-11T01:24:27.344Z,2.80
2022-10-11T01:27:28.058Z,2.60
2022-10-11T01:30:08.469Z,2.53
2022-10-11T01:32:44.141Z,2.60
2022-10-11T01:35:38.478Z,2.70
2022-10-11T01:38:23.182Z,2.70
2022-10-11T01:40:55.124Z,2.80
2022-10-11T01:43:24.020Z,3.63
2022-10-11T01:45:52.507Z,2.77
2022-10-11T01:48:18.969Z,3.50
2022-10-11T01:50:53.624Z,2.90
2022-10-11T01:53:44.552Z,2.80
2022-10-11T01:56:29.487Z,3.07
2022-10-11T01:59:05.533Z,2.13
2022-10-11T02:01:39.732Z,2.90
2022-10-11T02:04:33.311Z,2.33
2022-10-11T02:07:13.240Z,2.63
2022-10-11T02:09:52.457Z,2.43
2022-10-11T02:12:47.962Z,2.27
2022-10-11T02:15:17.173Z,2.10
2022-10-11T02:17:49.291Z,1.87
2022-10-11T02:20:20.873Z,1.93
2022-10-11T02:22:52.230Z,2.83
2022-10-11T02:25:30.585Z,2.50
2022-10-11T02:28:00.640Z,2.50
2022-10-11T02:30:27.641Z,2.13
2022-10-11T02:32:55.965Z,2.30
2022-10-11T02:35:27.245Z,2.40
2022-10-11T02:38:10.189Z,3.03
2022-10-11T02:40:40.600Z,2.53
2022-10-11T02:43:32.906Z,2.33
2022-10-11T02:46:01.166Z,1.93
2022-10-11T02:48:29.334Z,2.47
2022-10-11T02:50:57.270Z,2.07
2022-10-11T02:53:25.278Z,2.10
2022-10-11T02:55:53.529Z,2.37
2022-10-11T02:58:20.917Z,2.10
2022-10-11T03:00:47.457Z,2.10
2022-10-11T03:03:13.950Z,1.90
2022-10-11T03:05:41.481Z,1.90
2022-10-11T03:08:09.937Z,2.43
2022-10-11T03:10:37.207Z,2.40
2022-10-11T03:13:04.226Z,2.07
2022-10-11T03:15:30.642Z,2.47
2022-10-11T03:17:57.505Z,2.03
2022-10-11T03:20:24.688Z,2.50
2022-10-11T03:22:51.275Z,2.23
2022-10-11T03:25:18.006Z,2.17
2022-10-11T03:27:44.440Z,2.47
2022-10-11T03:30:14.128Z,2.10
2022-10-11T03:32:44.365Z,2.30
2022-10-11T03:35:10.836Z,2.67
2022-10-11T03:37:37.351Z,2.63
2022-10-11T03:40:05.577Z,3.30
2022-10-11T03:42:31.954Z,2.43
2022-10-11T03:44:59.731Z,1.93
2022-10-11T03:47:26.222Z,2.50
2022-10-11T03:49:52.899Z,2.50
2022-10-11T03:52:19.259Z,2.57
2022-10-11T03:54:45.675Z,2.43
2022-10-11T03:57:12.138Z,2.97
2022-10-11T03:59:38.490Z,2.83
2022-10-11T04:02:04.960Z,3.07
2022-10-11T04:04:31.635Z,3.10
2022-10-11T04:06:58.005Z,3.77
2022-10-11T04:09:24.416Z,3.17
2022-10-11T04:11:50.762Z,3.50
2022-10-11T04:14:17.282Z,3.07
2022-10-11T04:16:43.684Z,3.20
2022-10-11T04:19:10.117Z,3.47
2022-10-11T04:21:36.732Z,3.33
2022-10-11T04:24:03.197Z,3.23
2022-10-11T04:26:29.651Z,3.17
2022-10-11T04:28:56.208Z,3.93
2022-10-11T04:31:22.632Z,3.80
2022-10-11T04:33:49.059Z,4.00
2022-10-11T04:36:15.507Z,4.20
2022-10-11T04:38:41.970Z,3.60
2022-10-11T04:41:10.437Z,3.60
2022-10-11T04:43:37.040Z,3.90
2022-10-11T04:46:03.581Z,3.20
2022-10-11T04:48:30.232Z,3.57
2022-10-11T04:50:56.624Z,3.20
2022-10-11T04:53:23.320Z,3.67
2022-10-11T04:56:18.333Z,3.23
2022-10-11T04:58:48.110Z,2.80
2022-10-11T05:01:15.221Z,3.10
2022-10-11T05:03:41.614Z,3.07
2022-10-11T05:06:08.517Z,2.47
2022-10-11T05:08:35.196Z,2.67
2022-10-11T05:11:04.617Z,2.83
2022-10-11T05:13:32.773Z,3.03
2022-10-11T05:15:59.202Z,2.90
2022-10-11T05:18:26.317Z,2.40
2022-10-11T05:20:59.865Z,3.00
2022-10-11T05:23:26.910Z,2.50
2022-10-11T05:25:53.680Z,2.80
2022-10-11T05:28:20.094Z,3.17
2022-10-11T05:30:46.543Z,2.47
2022-10-11T05:33:12.919Z,2.60
2022-10-11T05:35:39.293Z,2.63
2022-10-11T05:38:05.728Z,2.53
2022-10-11T05:40:33.367Z,2.90
2022-10-11T05:42:59.712Z,2.87
2022-10-11T05:45:26.256Z,2.93
2022-10-11T05:47:52.661Z,2.93
2022-10-11T05:50:23.393Z,2.90
2022-10-11T05:52:50.731Z,2.73
2022-10-11T05:55:17.457Z,2.50
2022-10-11T05:57:44.384Z,2.53
2022-10-11T06:00:11.193Z,2.57
2022-10-11T06:02:37.564Z,2.37
2022-10-11T06:05:04.144Z,2.60
2022-10-11T06:07:30.877Z,2.57
2022-10-11T06:09:57.247Z,2.50
2022-10-11T06:12:23.658Z,3.10
2022-10-11T06:14:50.059Z,2.40
2022-10-11T06:17:16.461Z,2.60
2022-10-11T06:19:42.861Z,3.40
2022-10-11T06:22:11.706Z,2.93
2022-10-11T06:24:38.115Z,2.57
2022-10-11T06:27:04.632Z,2.53
2022-10-11T06:29:30.981Z,2.97
2022-10-11T06:31:58.404Z,2.80
2022-10-11T06:34:24.827Z,3.13
2022-10-11T06:36:51.699Z,2.80
2022-10-11T06:39:18.107Z,2.93
2022-10-11T06:41:44.643Z,2.40
2022-10-11T06:44:14.326Z,3.10
2022-10-11T06:46:41.361Z,2.83
2022-10-11T06:49:07.921Z,3.37
2022-10-11T06:51:35.628Z,2.67
2022-10-11T06:54:02.676Z,2.90
2022-10-11T06:56:31.176Z,2.83
2022-10-11T06:58:59.269Z,3.33
2022-10-11T07:01:26.585Z,3.10
2022-10-11T07:03:55.052Z,3.43
2022-10-11T07:06:27.115Z,3.23
2022-10-11T07:08:54.438Z,3.37
2022-10-11T07:11:23.750Z,3.67
2022-10-11T07:13:52.528Z,3.47
2022-10-11T07:16:20.164Z,3.93
2022-10-11T07:18:47.865Z,3.53
2022-10-11T07:21:16.011Z,4.00
2022-10-11T07:23:42.886Z,3.50
2022-10-11T07:26:10.726Z,3.43
2022-10-11T07:28:38.649Z,3.87
2022-10-11T07:31:12.521Z,4.03
2022-10-11T07:33:39.139Z,3.40
2022-10-11T07:36:06.688Z,3.80
2022-10-11T07:38:33.740Z,4.10
2022-10-11T07:41:05.248Z,4.27
2022-10-11T07:43:32.019Z,3.87
2022-10-11T07:46:03.955Z,4.53
2022-10-11T07:48:33.774Z,3.73
2022-10-11T07:51:12.374Z,3.77
2022-10-11T07:53:43.924Z,3.90
2022-10-11T07:56:14.649Z,3.67
2022-10-11T07:58:42.104Z,3.60
2022-10-11T08:01:09.702Z,3.70
2022-10-11T08:03:37.696Z,3.93
2022-10-11T08:06:08.005Z,3.63
2022-10-11T08:08:35.513Z,4.40
2022-10-11T08:11:02.055Z,4.87
2022-10-11T08:13:28.838Z,4.20
2022-10-11T08:15:55.276Z,4.47
2022-10-11T08:18:21.703Z,4.97
2022-10-11T08:20:48.823Z,4.43
2022-10-11T08:23:16.951Z,4.73
2022-10-11T08:25:45.567Z,4.37
2022-10-11T08:28:18.772Z,4.20
2022-10-11T08:30:49.985Z,4.10
2022-10-11T08:33:17.547Z,4.50
2022-10-11T08:35:44.763Z,4.43
2022-10-11T08:38:11.258Z,4.23
2022-10-11T08:40:38.051Z,4.03
2022-10-11T08:43:08.039Z,4.23
2022-10-11T08:45:46.453Z,3.17
2022-10-11T08:48:17.649Z,2.90
2022-10-11T08:50:47.379Z,2.63
2022-10-11T08:53:24.350Z,3.13
2022-10-11T08:55:52.754Z,2.37
2022-10-11T08:58:24.246Z,2.90
2022-10-11T09:00:55.081Z,2.77
2022-10-11T09:03:28.882Z,2.27
2022-10-11T09:06:20.973Z,1.93
2022-10-11T09:09:07.208Z,2.27
2022-10-11T09:11:47.356Z,2.30
2022-10-11T09:14:34.976Z,2.10
2022-10-11T09:17:17.679Z,2.60
2022-10-11T09:19:55.990Z,2.30
2022-10-11T09:22:34.249Z,2.00
2022-10-11T09:25:23.222Z,1.40
2022-10-11T09:28:11.704Z,2.47
2022-10-11T09:30:45.985Z,1.80
2022-10-11T09:33:18.632Z,1.97
2022-10-11T09:35:50.328Z,2.13
2022-10-11T09:38:31.718Z,2.03
2022-10-11T09:41:04.232Z,2.17
2022-10-11T09:43:30.791Z,1.83
2022-10-11T09:45:57.146Z,1.97
2022-10-11T09:48:28.701Z,2.50
2022-10-11T09:51:02.429Z,1.80
2022-10-11T09:54:04.944Z,1.80
2022-10-11T09:56:34.171Z,1.90
2022-10-11T09:59:36.080Z,2.03
2022-10-11T10:02:14.542Z,1.70
2022-10-11T10:05:04.057Z,1.90
2022-10-11T10:07:32.408Z,2.10
2022-10-11T10:09:59.560Z,1.50
2022-10-11T10:12:28.843Z,2.17
2022-10-11T10:15:19.467Z,2.20
2022-10-11T10:17:50.935Z,1.80
2022-10-11T10:20:30.080Z,1.90
2022-10-11T10:22:56.993Z,1.40
2022-10-11T10:25:31.906Z,1.30
2022-10-11T10:28:03.844Z,1.63
2022-10-11T10:30:35.411Z,1.67
2022-10-11T10:33:10.857Z,1.43
2022-10-11T10:35:55.183Z,1.50
2022-10-11T10:38:38.487Z,1.60
2022-10-11T10:41:09.847Z,1.60
2022-10-11T10:43:38.739Z,1.40
2022-10-11T10:46:11.305Z,1.80
2022-10-11T10:49:34.436Z,1.33
2022-10-11T10:52:10.248Z,1.17
2022-10-11T10:54:53.646Z,1.40
2022-10-11T10:57:41.715Z,1.77
2022-10-11T11:00:17.617Z,1.30
2022-10-11T11:03:00.685Z,1.57
2022-10-11T11:05:33.920Z,1.63
2022-10-11T11:08:29.809Z,1.47
2022-10-11T11:11:18.991Z,1.57
2022-10-11T11:13:51.478Z,1.37
2022-10-11T11:16:44.925Z,1.47
2022-10-11T11:19:30.173Z,1.30
2022-10-11T11:22:09.479Z,1.50
2022-10-11T11:25:27.060Z,1.50
2022-10-11T11:27:53.481Z,1.57
2022-10-11T11:30:32.163Z,1.30
2022-10-11T11:33:17.200Z,1.40
2022-10-11T11:35:49.932Z,1.30
2022-10-11T11:38:42.556Z,1.73
2022-10-11T11:41:17.486Z,1.77
2022-10-11T11:44:12.072Z,1.47
2022-10-11T11:46:46.016Z,1.20
2022-10-11T11:49:19.309Z,1.60
2022-10-11T11:51:46.514Z,1.23
2022-10-11T11:54:25.507Z,1.10
2022-10-11T11:57:12.799Z,1.03
2022-10-11T11:59:57.564Z,1.27
2022-10-11T12:02:35.897Z,1.53
2022-10-11T12:05:02.355Z,1.07
2022-10-11T12:07:29.449Z,1.23
2022-10-11T12:10:31.022Z,1.00
2022-10-11T12:13:12.317Z,1.20
2022-10-11T12:15:38.845Z,0.90
2022-10-11T12:18:14.355Z,1.00
2022-10-11T12:20:42.984Z,1.20
2022-10-11T12:23:20.105Z,0.93
2022-10-11T12:26:15.668Z,1.27
2022-10-11T12:28:42.314Z,1.40
2022-10-11T12:31:17.778Z,1.47
2022-10-11T12:33:47.139Z,1.10
2022-10-11T12:36:31.499Z,1.20
2022-10-11T12:39:19.686Z,1.40
2022-10-11T12:41:53.730Z,1.37
2022-10-11T12:44:23.835Z,1.30
2022-10-11T12:46:50.194Z,1.27
2022-10-11T12:49:32.468Z,1.03
2022-10-11T12:52:18.186Z,1.00
2022-10-11T12:55:12.495Z,1.07
2022-10-11T12:57:59.052Z,1.10
2022-10-11T13:00:31.396Z,1.13
2022-10-11T13:03:02.292Z,1.73
2022-10-11T13:05:52.383Z,1.03
2022-10-11T13:08:30.002Z,1.60
2022-10-11T13:11:04.436Z,1.23
2022-10-11T13:13:39.378Z,1.00
2022-10-11T13:16:16.825Z,1.00
2022-10-11T13:18:46.360Z,1.23
2022-10-11T13:21:36.519Z,0.90
2022-10-11T13:24:16.036Z,1.50
2022-10-11T13:26:47.714Z,1.20
2022-10-11T13:29:17.705Z,1.27
2022-10-11T13:31:48.335Z,0.90
2022-10-11T13:34:17.666Z,1.20
2022-10-11T13:36:47.422Z,1.40
2022-10-11T13:39:31.183Z,1.10
2022-10-11T13:41:59.588Z,1.23
2022-10-11T13:44:26.857Z,1.37
2022-10-11T13:46:53.983Z,1.90
2022-10-11T13:49:42.764Z,1.13
2022-10-11T13:52:22.244Z,1.50
2022-10-11T13:55:03.913Z,0.87
2022-10-11T13:57:39.329Z,4.67
2022-10-11T14:00:14.989Z,1.70
2022-10-11T14:02:54.037Z,1.00
2022-10-11T14:05:33.625Z,1.40
2022-10-11T14:08:04.001Z,1.10
2022-10-11T14:10:31.188Z,1.93
2022-10-11T14:13:01.715Z,1.67
2022-10-11T14:15:33.080Z,0.97
2022-10-11T14:18:01.096Z,2.13
2022-10-11T14:20:39.463Z,1.30
2022-10-11T14:23:06.799Z,1.23
2022-10-11T14:25:33.641Z,1.67
2022-10-11T14:27:59.979Z,1.40
2022-10-11T14:30:27.898Z,1.13
2022-10-11T14:32:57.619Z,0.97
2022-10-11T14:35:26.658Z,1.20
2022-10-11T14:37:53.770Z,1.30
2022-10-11T14:40:24.564Z,1.63
2022-10-11T14:42:51.570Z,1.20
2022-10-11T14:45:18.737Z,1.43
2022-10-11T14:47:45.285Z,1.50
2022-10-11T14:50:30.648Z,1.03
2022-10-11T14:52:58.126Z,1.00
2022-10-11T14:55:24.586Z,1.17
2022-10-11T14:57:51.070Z,1.27
2022-10-11T15:00:24.144Z,1.17
2022-10-11T15:02:52.768Z,1.20
2022-10-11T15:05:20.902Z,1.37
2022-10-11T15:07:47.882Z,1.20
2022-10-11T15:10:26.858Z,1.30
2022-10-11T15:12:55.476Z,1.27
2022-10-11T15:15:24.827Z,1.03
2022-10-11T15:17:54.434Z,1.30
2022-10-11T15:20:23.304Z,1.33
2022-10-11T15:22:50.252Z,1.33
2022-10-11T15:25:17.139Z,1.30
2022-10-11T15:27:43.754Z,1.17
2022-10-11T15:30:25.434Z,1.20
2022-10-11T15:32:53.254Z,1.33
2022-10-11T15:35:21.567Z,1.40
2022-10-11T15:37:47.970Z,1.20
2022-10-11T15:40:21.965Z,1.77
2022-10-11T15:42:48.831Z,1.20
2022-10-11T15:45:17.352Z,1.23
2022-10-11T15:47:44.650Z,1.40
2022-10-11T15:50:24.069Z,1.73
2022-10-11T15:52:51.762Z,1.50
2022-10-11T15:55:18.702Z,1.30
2022-10-11T15:57:45.051Z,1.00
2022-10-11T16:00:11.826Z,1.30
2022-10-11T16:02:39.064Z,1.50
2022-10-11T16:05:05.667Z,1.00
2022-10-11T16:07:32.108Z,1.67
2022-10-11T16:09:58.772Z,1.20
2022-10-11T16:12:25.361Z,1.50
2022-10-11T16:14:51.774Z,1.10
2022-10-11T16:17:18.241Z,1.47
2022-10-11T16:19:44.660Z,1.30
2022-10-11T16:22:11.085Z,1.60
2022-10-11T16:24:37.467Z,1.40
2022-10-11T16:27:03.938Z,1.43
2022-10-11T16:29:30.293Z,1.47
2022-10-11T16:31:56.664Z,2.10
2022-10-11T16:34:23.556Z,1.43
2022-10-11T16:36:49.920Z,1.20
2022-10-11T16:39:18.290Z,1.43
2022-10-11T16:41:45.911Z,1.00
2022-10-11T16:44:18.426Z,1.40
2022-10-11T16:46:48.859Z,1.40
2022-10-11T16:49:16.849Z,1.50
2022-10-11T16:51:43.548Z,1.40
2022-10-11T16:54:10.025Z,1.20
2022-10-11T16:56:39.879Z,1.53
2022-10-11T16:59:07.425Z,1.50
2022-10-11T17:01:33.810Z,1.57
2022-10-11T17:04:00.275Z,1.40
2022-10-11T17:06:26.860Z,1.47
2022-10-11T17:08:54.424Z,1.53
2022-10-11T17:11:22.381Z,2.60
2022-10-11T17:13:50.287Z,2.23
2022-10-11T17:16:17.519Z,2.47
2022-10-11T17:18:44.018Z,2.30
2022-10-11T17:21:16.474Z,1.90
2022-10-11T17:23:43.967Z,2.27
2022-10-11T17:26:15.653Z,2.23
2022-10-11T17:28:42.316Z,2.13
2022-10-11T17:31:09.492Z,2.17
2022-10-11T17:33:36.475Z,2.27
2022-10-11T17:36:14.119Z,2.30
2022-10-11T17:38:40.473Z,2.33
2022-10-11T17:41:08.294Z,2.20
2022-10-11T17:43:35.048Z,2.27
2022-10-11T17:46:06.781Z,3.10
2022-10-11T17:48:36.553Z,3.07
2022-10-11T17:51:11.458Z,2.07
2022-10-11T17:53:39.035Z,2.07
2022-10-11T17:56:12.628Z,2.67
2022-10-11T17:58:39.224Z,2.90
2022-10-11T18:01:09.780Z,3.60
2022-10-11T18:03:36.832Z,3.40
2022-10-11T18:06:08.705Z,4.00
2022-10-11T18:08:40.138Z,4.63
2022-10-11T18:11:16.577Z,4.10
2022-10-11T18:13:46.073Z,3.73
2022-10-11T18:16:15.389Z,3.20
2022-10-11T18:18:42.580Z,3.10
2022-10-11T18:21:09.997Z,3.57
2022-10-11T18:23:38.214Z,3.03
2022-10-11T18:26:10.418Z,3.53
2022-10-11T18:28:37.070Z,2.67
2022-10-11T18:31:12.548Z,2.90
2022-10-11T18:33:40.238Z,3.07
2022-10-11T18:36:09.187Z,3.20
2022-10-11T18:38:37.681Z,3.00
2022-10-11T18:41:09.476Z,2.90
2022-10-11T18:43:36.413Z,2.43
2022-10-11T18:46:12.438Z,2.57
2022-10-11T18:48:42.960Z,2.70
2022-10-11T18:51:15.378Z,2.27
2022-10-11T18:53:42.254Z,2.17
2022-10-11T18:56:10.463Z,2.40
2022-10-11T18:58:38.253Z,2.80
2022-10-11T19:01:11.276Z,2.77
2022-10-11T19:03:38.088Z,2.90
2022-10-11T19:06:07.730Z,3.47
2022-10-11T19:08:34.582Z,3.60
2022-10-11T19:11:08.689Z,3.07
2022-10-11T19:13:35.984Z,3.13
2022-10-11T19:16:05.419Z,3.53
2022-10-11T19:18:32.272Z,3.43
2022-10-11T19:21:08.567Z,3.73
2022-10-11T19:23:39.071Z,3.20
2022-10-11T19:26:08.013Z,3.63
2022-10-11T19:28:34.855Z,3.70
2022-10-11T19:31:06.390Z,3.40
2022-10-11T19:33:34.245Z,3.23
2022-10-11T19:36:05.341Z,2.77
2022-10-11T19:38:33.591Z,3.30
2022-10-11T19:41:04.282Z,2.70
2022-10-11T19:43:34.511Z,2.37
2022-10-11T19:46:02.508Z,2.77
2022-10-11T19:48:30.096Z,2.63
2022-10-11T19:51:05.325Z,2.47
2022-10-11T19:53:32.521Z,2.67
2022-10-11T19:56:04.147Z,1.97
2022-10-11T19:58:30.598Z,2.57
2022-10-11T20:01:07.254Z,2.17
2022-10-11T20:03:34.228Z,2.80
2022-10-11T20:06:08.084Z,2.50
2022-10-11T20:08:36.051Z,2.53
2022-10-11T20:11:05.572Z,2.97
2022-10-11T20:13:35.017Z,2.43
2022-10-11T20:16:10.913Z,2.40
2022-10-11T20:18:38.472Z,2.87
2022-10-11T20:21:08.629Z,2.73
2022-10-11T20:23:35.625Z,3.07
2022-10-11T20:26:12.036Z,2.77
2022-10-11T20:28:39.831Z,2.13
2022-10-11T20:31:26.021Z,2.70
2022-10-11T20:33:58.959Z,2.43
2022-10-11T20:36:29.489Z,2.63
2022-10-11T20:38:57.156Z,2.37
2022-10-11T20:41:26.804Z,2.13
2022-10-11T20:43:56.107Z,1.80
2022-10-11T20:46:28.410Z,2.17
2022-10-11T20:49:01.628Z,2.20
2022-10-11T20:51:30.507Z,2.30
2022-10-11T20:53:57.936Z,2.60
2022-10-11T20:56:24.352Z,2.63
2022-10-11T20:58:53.160Z,2.40
2022-10-11T21:01:22.863Z,4.60
2022-10-11T21:03:50.313Z,4.30
2022-10-11T21:06:16.821Z,5.60
2022-10-11T21:08:43.264Z,4.63
2022-10-11T21:11:10.543Z,5.10
2022-10-11T21:13:37.794Z,7.40
2022-10-11T21:16:13.104Z,6.93
2022-10-11T21:18:39.937Z,9.40
2022-10-11T21:21:12.514Z,5.30
2022-10-11T21:23:39.770Z,11.87
2022-10-11T21:26:08.845Z,8.27
2022-10-11T21:28:35.437Z,7.87
2022-10-11T21:31:09.653Z,5.00
2022-10-11T21:33:36.710Z,4.87
2022-10-11T21:36:14.743Z,6.27
2022-10-11T21:38:41.770Z,4.40
2022-10-11T21:41:11.317Z,3.33
2022-10-11T21:43:38.383Z,3.40
2022-10-11T21:46:10.439Z,2.73
2022-10-11T21:48:36.880Z,2.43
2022-10-11T21:51:03.393Z,2.17
2022-10-11T21:53:30.006Z,2.77
2022-10-11T21:56:00.617Z,2.00
2022-10-11T21:58:27.792Z,2.73
2022-10-11T22:00:54.938Z,2.40
2022-10-11T22:03:21.391Z,2.57
2022-10-11T22:05:48.421Z,2.40
2022-10-11T22:08:15.283Z,3.20
2022-10-11T22:10:51.858Z,2.20
2022-10-11T22:13:18.225Z,3.07
2022-10-11T22:15:44.632Z,2.50
2022-10-11T22:18:10.970Z,2.47
2022-10-11T22:20:37.359Z,2.80
2022-10-11T22:23:03.784Z,2.07
2022-10-11T22:25:30.581Z,2.47
2022-10-11T22:27:57.089Z,2.40
2022-10-11T22:30:23.455Z,2.20
2022-10-11T22:32:51.343Z,2.23
2022-10-11T22:35:18.178Z,2.70
2022-10-11T22:37:44.581Z,2.50
2022-10-11T22:40:11.244Z,2.33
2022-10-11T22:42:37.717Z,2.20
2022-10-11T22:45:04.865Z,2.30
2022-10-11T22:47:31.236Z,2.53
2022-10-11T22:49:57.593Z,2.10
2022-10-11T22:52:23.961Z,2.20
2022-10-11T22:54:50.306Z,2.20
2022-10-11T22:57:16.665Z,2.63
2022-10-11T22:59:43.251Z,2.00
2022-10-11T23:02:09.690Z,2.10
2022-10-11T23:04:36.053Z,2.27
2022-10-11T23:07:04.925Z,2.17
2022-10-11T23:09:31.730Z,2.20
2022-10-11T23:11:59.061Z,2.07
2022-10-11T23:14:25.491Z,2.63
2022-10-11T23:16:52.006Z,2.40
2022-10-11T23:19:18.471Z,2.73
2022-10-11T23:21:45.300Z,2.27
2022-10-11T23:24:11.701Z,2.80
2022-10-11T23:26:38.208Z,2.90
2022-10-11T23:29:04.578Z,2.70
2022-10-11T23:31:30.944Z,2.80
2022-10-11T23:33:57.602Z,2.90
2022-10-11T23:36:25.721Z,2.83
2022-10-11T23:38:57.548Z,3.13
2022-10-11T23:41:26.465Z,3.37
2022-10-11T23:43:52.965Z,3.17
2022-10-11T23:46:19.517Z,3.37
2022-10-11T23:48:45.919Z,3.47
2022-10-11T23:51:12.323Z,2.50
2022-10-11T23:53:38.713Z,3.10
2022-10-11T23:56:05.665Z,2.30
2022-10-11T23:58:32.079Z,2.40
